Time;durP1;ratioP1;P1;durP2;ratioP2;P2;SDS_P1;SDS_P2;PMS_P1;PMS_P2;Temp;Humidity;BMP_temperature;BMP_pressure;BME280_temperature;BME280_humidity;BME280_pressure;Samples;Min_cycle;Max_cycle;Signal;HPM_P1;HPM_P2
2022/08/17 00:00:37;;;;;;;38.50;30.90;;;19.40;99.90;;;;;;5050991;28;20056;-76
2022/08/17 00:03:18;;;;;;;35.70;28.75;;;19.50;99.90;;;;;;5052650;28;20118;-77
2022/08/17 00:05:49;;;;;;;39.20;29.83;;;19.40;99.90;;;;;;5069584;28;20075;-77
2022/08/17 00:08:18;;;;;;;34.90;29.08;;;19.50;99.90;;;;;;5069382;28;20052;-77
2022/08/17 00:10:45;;;;;;;33.70;27.77;;;19.50;99.90;;;;;;5050017;28;20048;-77
2022/08/17 00:13:34;;;;;;;34.95;28.45;;;19.50;99.90;;;;;;5068755;28;20044;-77
2022/08/17 00:16:10;;;;;;;33.85;25.95;;;19.50;99.90;;;;;;5068936;28;20156;-77
2022/08/17 00:18:37;;;;;;;32.85;27.02;;;19.40;99.90;;;;;;5067410;28;20089;-78
2022/08/17 00:21:06;;;;;;;32.08;26.88;;;19.40;99.90;;;;;;5068950;28;20091;-76
2022/08/17 00:23:32;;;;;;;33.10;27.45;;;19.30;99.90;;;;;;5051106;28;20042;-76
2022/08/17 00:25:58;;;;;;;27.65;23.42;;;19.30;99.90;;;;;;5067309;28;20040;-77
2022/08/17 00:28:24;;;;;;;30.15;25.88;;;19.20;99.90;;;;;;5051527;28;20044;-76
2022/08/17 00:30:51;;;;;;;30.00;24.88;;;19.10;99.90;;;;;;5069578;28;20510;-76
2022/08/17 00:33:22;;;;;;;26.83;23.30;;;19.10;99.90;;;;;;5067420;28;20087;-76
2022/08/17 00:35:48;;;;;;;25.15;22.08;;;19.00;99.90;;;;;;5068595;28;20039;-76
2022/08/17 00:38:15;;;;;;;25.50;22.60;;;19.00;99.90;;;;;;5067467;28;20396;-76
2022/08/17 00:40:46;;;;;;;26.42;22.45;;;18.90;99.90;;;;;;5068874;28;20403;-76
2022/08/17 00:43:24;;;;;;;24.65;21.90;;;18.90;99.90;;;;;;5068790;28;20048;-75
2022/08/17 00:45:50;;;;;;;21.65;19.50;;;18.80;99.90;;;;;;5055536;28;20044;-76
2022/08/17 00:48:16;;;;;;;16.35;14.73;;;18.70;99.90;;;;;;5049389;28;20053;-75
2022/08/17 00:50:54;;;;;;;20.30;17.73;;;18.70;99.90;;;;;;5049080;28;20127;-75
2022/08/17 00:53:21;;;;;;;20.52;18.42;;;18.60;99.90;;;;;;5050511;28;20174;-76
2022/08/17 00:55:47;;;;;;;20.20;18.15;;;18.50;99.90;;;;;;5052770;28;20045;-76
2022/08/17 00:58:13;;;;;;;18.48;16.48;;;18.30;99.90;;;;;;5053383;28;20049;-75
2022/08/17 01:00:42;;;;;;;20.77;18.65;;;18.30;99.90;;;;;;5058842;28;20036;-77
2022/08/17 01:03:12;;;;;;;19.20;17.08;;;18.30;99.90;;;;;;5072379;28;20044;-76
2022/08/17 01:05:40;;;;;;;16.33;13.98;;;18.20;99.90;;;;;;5054691;28;20045;-75
2022/08/17 01:08:11;;;;;;;21.88;16.95;;;18.20;99.90;;;;;;5071576;28;20036;-76
2022/08/17 01:10:41;;;;;;;23.35;20.17;;;18.10;99.90;;;;;;5072991;28;20036;-77
2022/08/17 01:13:07;;;;;;;24.13;20.95;;;18.10;99.90;;;;;;5072898;28;20040;-76
2022/08/17 01:15:37;;;;;;;23.02;20.30;;;18.10;99.90;;;;;;5071059;28;20037;-74
2022/08/17 01:18:06;;;;;;;24.98;19.67;;;18.10;99.90;;;;;;5072779;28;20044;-75
2022/08/17 01:20:32;;;;;;;24.73;20.98;;;18.10;99.90;;;;;;5070249;28;20454;-75
2022/08/17 01:22:59;;;;;;;23.45;19.92;;;17.90;99.90;;;;;;5072412;28;20036;-75
2022/08/17 01:25:28;;;;;;;24.42;18.92;;;17.80;99.90;;;;;;5072217;28;20472;-76
2022/08/17 01:27:54;;;;;;;23.20;19.35;;;17.90;99.90;;;;;;5070891;28;20788;-75
2022/08/17 01:30:20;;;;;;;26.08;19.65;;;17.80;99.90;;;;;;5071929;28;20062;-76
2022/08/17 01:32:46;;;;;;;25.70;20.50;;;17.80;99.90;;;;;;5068180;28;20036;-75
2022/08/17 01:35:12;;;;;;;24.38;21.15;;;17.90;99.90;;;;;;5053763;28;20053;-75
2022/08/17 01:37:41;;;;;;;30.48;23.17;;;17.80;99.90;;;;;;5052236;28;20053;-75
2022/08/17 01:40:12;;;;;;;29.85;24.63;;;17.80;99.90;;;;;;5052797;28;20102;-76
2022/08/17 01:42:44;;;;;;;29.98;23.08;;;17.80;99.90;;;;;;5053620;28;20045;-74
2022/08/17 01:45:22;;;;;;;27.20;24.10;;;17.80;99.90;;;;;;5052704;28;20072;-76
2022/08/17 01:47:48;;;;;;;25.23;22.48;;;17.80;99.90;;;;;;5035713;28;20593;-77
2022/08/17 01:50:24;;;;;;;33.35;25.13;;;17.80;99.90;;;;;;5052593;28;20064;-76
2022/08/17 01:52:54;;;;;;;30.45;23.52;;;17.70;99.90;;;;;;5049351;28;20052;-76
2022/08/17 01:55:26;;;;;;;24.55;21.30;;;17.70;99.90;;;;;;5053485;28;20056;-75
2022/08/17 01:57:51;;;;;;;22.77;20.27;;;17.70;99.90;;;;;;5052086;28;20037;-75
2022/08/17 02:00:17;;;;;;;43.92;35.60;;;17.60;99.90;;;;;;5052171;28;20063;-74
2022/08/17 02:02:44;;;;;;;42.42;35.92;;;17.60;99.90;;;;;;5067501;28;20048;-75
2022/08/17 02:05:11;;;;;;;39.17;33.20;;;17.60;99.90;;;;;;5071067;28;20076;-76
2022/08/17 02:07:36;;;;;;;21.73;17.77;;;17.50;99.90;;;;;;5065404;28;20049;-73
2022/08/17 02:10:05;;;;;;;19.23;16.65;;;17.50;99.90;;;;;;5053189;28;20044;-75
2022/08/17 02:12:30;;;;;;;19.40;15.98;;;17.30;99.90;;;;;;5063134;28;20503;-74
2022/08/17 02:14:56;;;;;;;24.77;20.70;;;17.30;99.90;;;;;;5054309;28;20036;-75
2022/08/17 02:17:21;;;;;;;23.10;19.48;;;17.40;99.90;;;;;;5051796;28;20056;-75
2022/08/17 02:19:47;;;;;;;18.95;16.92;;;17.30;99.90;;;;;;5034007;28;20072;-74
2022/08/17 02:22:13;;;;;;;19.02;17.13;;;17.20;99.90;;;;;;5053100;28;20041;-75
2022/08/17 02:24:39;;;;;;;17.15;15.35;;;17.10;99.90;;;;;;5034493;28;20127;-76
2022/08/17 02:27:05;;;;;;;16.92;15.13;;;17.10;99.90;;;;;;5051720;28;20148;-76
2022/08/17 02:29:32;;;;;;;21.30;16.40;;;17.10;99.90;;;;;;5051689;28;20033;-75
2022/08/17 02:31:59;;;;;;;20.55;15.88;;;17.10;99.90;;;;;;5051419;28;20040;-73
2022/08/17 02:34:24;;;;;;;18.90;13.98;;;17.10;99.90;;;;;;5069003;28;20079;-74
2022/08/17 02:36:52;;;;;;;14.93;13.40;;;17.00;99.90;;;;;;5059224;28;20099;-75
2022/08/17 02:39:18;;;;;;;16.13;13.10;;;17.00;99.90;;;;;;5060624;28;20048;-75
2022/08/17 02:41:44;;;;;;;15.43;13.80;;;17.00;99.90;;;;;;5051679;28;20029;-74
2022/08/17 02:44:10;;;;;;;17.75;14.57;;;17.20;99.90;;;;;;5068987;28;20110;-75
2022/08/17 02:46:36;;;;;;;20.52;17.05;;;17.00;99.90;;;;;;5051250;28;20512;-75
2022/08/17 02:49:03;;;;;;;25.90;21.27;;;16.90;99.90;;;;;;5051431;28;20092;-74
2022/08/17 02:51:30;;;;;;;21.10;18.90;;;17.00;99.90;;;;;;5051938;28;20056;-75
2022/08/17 02:53:56;;;;;;;26.98;22.20;;;17.00;99.90;;;;;;5052313;28;20068;-75
2022/08/17 02:56:22;;;;;;;33.53;25.98;;;17.00;99.90;;;;;;5052184;28;20076;-75
2022/08/17 02:58:48;;;;;;;40.10;27.98;;;17.10;99.90;;;;;;5070778;28;20082;-74
2022/08/17 03:01:13;;;;;;;46.25;34.08;;;17.20;99.90;;;;;;5069594;28;20044;-76
2022/08/17 03:03:39;;;;;;;52.55;37.08;;;17.40;99.90;;;;;;5052401;28;20048;-75
2022/08/17 03:06:06;;;;;;;143.13;44.65;;;17.40;99.90;;;;;;5069185;28;20044;-76
2022/08/17 03:08:32;;;;;;;60.63;38.33;;;17.50;99.90;;;;;;5069902;28;20059;-75
2022/08/17 03:10:58;;;;;;;82.15;40.78;;;17.60;99.90;;;;;;5070181;28;20440;-75
2022/08/17 03:13:24;;;;;;;54.83;38.20;;;17.70;99.90;;;;;;5069745;28;20131;-75
2022/08/17 03:15:50;;;;;;;76.65;39.28;;;17.80;99.90;;;;;;5051819;28;20041;-75
2022/08/17 03:18:18;;;;;;;65.38;39.13;;;17.80;99.90;;;;;;5032113;28;20060;-76
2022/08/17 03:20:44;;;;;;;61.92;37.42;;;17.90;99.90;;;;;;5050791;28;20033;-75
2022/08/17 03:23:10;;;;;;;48.35;32.42;;;17.80;99.90;;;;;;5050770;28;20193;-75
2022/08/17 03:25:41;;;;;;;80.82;37.13;;;18.00;99.90;;;;;;5051333;28;20048;-75
2022/08/17 03:28:08;;;;;;;84.63;40.92;;;18.00;99.90;;;;;;5050580;28;20118;-75
2022/08/17 03:30:35;;;;;;;77.03;37.13;;;18.10;99.90;;;;;;5032523;28;20171;-74
2022/08/17 03:33:03;;;;;;;56.50;38.03;;;18.10;99.90;;;;;;5050550;28;20093;-75
2022/08/17 03:35:32;;;;;;;84.90;39.22;;;18.20;99.90;;;;;;5050251;28;20045;-75
2022/08/17 03:37:59;;;;;;;48.83;34.45;;;18.20;99.90;;;;;;5050838;28;20049;-75
2022/08/17 03:40:25;;;;;;;93.05;38.97;;;18.20;99.90;;;;;;5050654;28;20049;-75
2022/08/17 03:42:53;;;;;;;102.13;37.83;;;18.30;99.90;;;;;;5050160;28;20849;-77
2022/08/17 03:56:41;;;;;;;137.90;35.33;;;18.30;99.90;;;;;;5056505;28;20051;-77
2022/08/17 03:56:42;;;;;;;68.45;34.47;;;18.40;99.90;;;;;;5050712;28;20294;-74
2022/08/17 03:59:25;;;;;;;113.03;34.90;;;18.40;99.90;;;;;;5067801;28;20040;-75
2022/08/17 04:01:53;;;;;;;110.43;35.67;;;18.40;99.90;;;;;;5069089;28;20121;-75
2022/08/17 04:04:20;;;;;;;48.33;33.25;;;18.50;99.90;;;;;;5051276;28;20059;-74
2022/08/17 04:06:45;;;;;;;53.97;34.05;;;18.40;99.90;;;;;;5069336;28;20045;-75
2022/08/17 04:09:12;;;;;;;78.50;34.40;;;18.50;99.90;;;;;;5049604;28;20056;-75
2022/08/17 04:11:38;;;;;;;134.70;38.92;;;18.40;99.90;;;;;;5068838;28;20053;-75
2022/08/17 04:14:05;;;;;;;46.55;31.27;;;18.50;99.90;;;;;;5040294;28;20098;-75
2022/08/17 04:16:32;;;;;;;39.55;30.83;;;18.50;99.90;;;;;;5064093;28;20059;-75
2022/08/17 04:18:57;;;;;;;74.75;31.85;;;18.50;99.90;;;;;;5067051;28;20048;-75
2022/08/17 04:21:23;;;;;;;47.28;31.77;;;18.50;99.90;;;;;;5069411;28;20098;-75
2022/08/17 04:23:49;;;;;;;125.45;34.33;;;18.50;99.90;;;;;;5068817;28;20115;-76
2022/08/17 04:26:15;;;;;;;62.95;32.30;;;18.50;99.90;;;;;;5069389;28;20059;-74
2022/08/17 04:28:41;;;;;;;35.50;30.40;;;18.50;99.90;;;;;;5050611;28;20052;-76
2022/08/17 04:31:11;;;;;;;37.17;30.15;;;18.50;99.90;;;;;;5067668;28;20037;-76
2022/08/17 04:33:38;;;;;;;54.53;30.75;;;18.70;99.90;;;;;;5062539;28;20124;-76
2022/08/17 04:36:06;;;;;;;82.50;33.40;;;18.60;99.90;;;;;;5031911;28;20056;-75
2022/08/17 04:38:37;;;;;;;141.88;35.25;;;18.60;99.90;;;;;;5049853;28;20041;-76
2022/08/17 04:43:53;;;;;;;40.05;29.75;;;18.60;99.90;;;;;;5049295;28;20052;-76
2022/08/17 04:46:25;;;;;;;118.43;35.85;;;18.60;99.90;;;;;;5068697;28;20059;-75
2022/08/17 04:48:54;;;;;;;119.53;33.80;;;18.60;99.90;;;;;;5067570;28;20481;-74
2022/08/17 04:51:30;;;;;;;41.85;31.38;;;18.60;99.90;;;;;;5062222;28;20458;-74
2022/08/17 04:54:03;;;;;;;32.45;27.70;;;18.60;99.90;;;;;;5049511;28;20041;-74
2022/08/17 04:56:29;;;;;;;40.97;31.70;;;18.70;99.90;;;;;;5042975;28;20051;-74
2022/08/17 04:58:58;;;;;;;44.17;31.13;;;18.70;99.90;;;;;;5068253;28;20315;-75
2022/08/17 05:01:27;;;;;;;51.60;31.42;;;18.70;99.90;;;;;;5049362;28;20084;-75
2022/08/17 05:03:55;;;;;;;57.65;31.38;;;18.70;99.90;;;;;;5068258;28;20044;-75
2022/08/17 05:06:21;;;;;;;40.10;30.63;;;18.70;99.90;;;;;;5068400;28;20484;-76
2022/08/17 05:08:47;;;;;;;44.03;33.33;;;18.80;99.90;;;;;;5068559;28;20506;-73
2022/08/17 05:11:13;;;;;;;43.83;32.08;;;18.80;99.90;;;;;;5067033;28;20053;-76
2022/08/17 05:13:39;;;;;;;45.63;33.20;;;18.80;99.90;;;;;;5067668;28;20123;-76
2022/08/17 05:16:05;;;;;;;52.15;33.58;;;18.80;99.90;;;;;;5068613;28;20496;-76
2022/08/17 05:18:31;;;;;;;40.40;30.00;;;18.80;99.90;;;;;;5068454;28;20040;-76
2022/08/17 05:20:57;;;;;;;44.17;31.27;;;18.90;99.90;;;;;;5068570;28;20391;-75
2022/08/17 05:23:25;;;;;;;47.85;32.15;;;18.90;99.90;;;;;;5067262;28;20052;-75
2022/08/17 05:25:53;;;;;;;38.92;29.58;;;18.90;99.90;;;;;;5068748;28;20063;-75
2022/08/17 05:28:20;;;;;;;37.60;29.15;;;19.00;99.90;;;;;;5067486;28;20058;-77
2022/08/17 05:30:47;;;;;;;39.60;30.70;;;19.00;99.90;;;;;;5050409;28;20048;-77
2022/08/17 05:33:19;;;;;;;47.10;30.77;;;18.80;99.90;;;;;;5067082;28;20460;-75
2022/08/17 05:35:48;;;;;;;36.00;28.63;;;19.00;99.90;;;;;;5068667;28;20128;-76
2022/08/17 05:38:15;;;;;;;39.63;29.75;;;18.90;99.90;;;;;;5050657;28;20135;-76
2022/08/17 05:40:42;;;;;;;40.85;31.27;;;18.90;99.90;;;;;;5051232;28;20048;-77
2022/08/17 05:43:26;;;;;;;40.90;30.08;;;18.90;99.90;;;;;;5070829;28;20072;-76
2022/08/17 05:46:14;;;;;;;39.08;29.80;;;18.80;99.90;;;;;;5052246;28;20183;-76
2022/08/17 05:48:43;;;;;;;35.63;28.02;;;18.90;99.90;;;;;;5070731;28;20139;-76
2022/08/17 05:51:46;;;;;;;36.20;28.27;;;18.90;99.90;;;;;;5071960;28;20446;-76
2022/08/17 05:54:31;;;;;;;39.53;29.67;;;18.90;99.90;;;;;;5070345;28;20041;-76
2022/08/17 05:57:11;;;;;;;35.80;28.48;;;18.90;99.90;;;;;;5071914;28;20041;-76
2022/08/17 05:59:54;;;;;;;41.40;30.05;;;18.90;99.90;;;;;;5053782;28;20568;-76
2022/08/17 06:02:23;;;;;;;37.10;27.10;;;19.00;99.90;;;;;;5071735;28;20044;-75
2022/08/17 06:04:58;;;;;;;36.60;27.92;;;19.00;99.90;;;;;;5052792;28;20048;-76
2022/08/17 06:08:15;;;;;;;37.08;28.83;;;19.00;99.90;;;;;;5053450;28;20092;-75
2022/08/17 06:10:54;;;;;;;36.88;29.10;;;19.00;99.90;;;;;;4958161;28;20086;-77
2022/08/17 06:13:53;;;;;;;41.08;31.13;;;19.00;99.90;;;;;;4964188;28;20061;-75
2022/08/17 06:16:26;;;;;;;40.78;30.85;;;19.10;99.90;;;;;;4967052;28;20084;-74
2022/08/17 06:19:01;;;;;;;35.40;29.20;;;19.10;99.90;;;;;;4998273;28;20051;-76
2022/08/17 06:21:37;;;;;;;40.40;30.70;;;19.10;99.90;;;;;;4957581;28;20066;-77
2022/08/17 06:24:24;;;;;;;39.60;30.67;;;19.10;99.90;;;;;;4983699;28;20058;-77
2022/08/17 06:26:51;;;;;;;38.70;30.58;;;19.10;99.90;;;;;;4976221;28;20054;-76
2022/08/17 06:29:49;;;;;;;40.83;30.60;;;19.10;99.90;;;;;;4994159;28;20082;-77
2022/08/17 06:32:16;;;;;;;50.72;32.03;;;19.20;99.90;;;;;;4963819;28;20141;-76
2022/08/17 06:34:43;;;;;;;34.88;28.45;;;19.10;99.90;;;;;;5006265;28;20050;-79
2022/08/17 06:37:30;;;;;;;34.78;28.10;;;19.10;99.90;;;;;;4968028;28;20086;-77
2022/08/17 06:40:17;;;;;;;37.13;28.95;;;19.20;99.90;;;;;;4970674;28;20130;-73
2022/08/17 06:42:46;;;;;;;40.38;30.38;;;19.20;99.90;;;;;;4974310;28;20090;-76
2022/08/17 06:45:23;;;;;;;38.25;28.17;;;19.20;99.90;;;;;;4957382;28;20063;-78
2022/08/17 06:47:55;;;;;;;40.35;30.00;;;19.20;99.90;;;;;;5033124;28;20064;-75
2022/08/17 06:50:46;;;;;;;44.60;32.95;;;19.10;99.90;;;;;;5069455;28;20059;-76
2022/08/17 06:53:21;;;;;;;37.60;29.02;;;19.30;99.90;;;;;;5070320;28;20056;-75
2022/08/17 06:56:00;;;;;;;47.20;34.83;;;19.30;99.90;;;;;;5071507;28;20059;-76
2022/08/17 06:58:27;;;;;;;38.13;30.63;;;19.30;99.90;;;;;;5071280;28;20063;-76
2022/08/17 07:00:57;;;;;;;44.95;32.65;;;19.30;99.90;;;;;;5071234;28;20066;-75
2022/08/17 07:03:23;;;;;;;45.03;32.50;;;19.40;99.90;;;;;;5053346;28;20071;-77
2022/08/17 07:06:11;;;;;;;47.80;33.30;;;19.40;99.90;;;;;;5071151;28;20036;-78
2022/08/17 07:08:45;;;;;;;48.67;34.42;;;19.50;99.90;;;;;;5071253;28;20124;-78
2022/08/17 07:11:15;;;;;;;46.80;34.20;;;19.40;99.90;;;;;;5071156;28;20064;-77
2022/08/17 07:13:53;;;;;;;43.63;33.17;;;19.40;99.90;;;;;;5050832;28;20091;-75
2022/08/17 07:16:25;;;;;;;35.55;30.15;;;19.40;99.90;;;;;;5070652;28;20182;-77
2022/08/17 07:18:52;;;;;;;35.63;29.38;;;19.30;99.90;;;;;;5038434;28;20054;-76
2022/08/17 07:21:38;;;;;;;41.78;32.65;;;19.30;99.90;;;;;;5070313;28;20102;-78
2022/08/17 07:24:28;;;;;;;50.53;36.13;;;19.30;99.90;;;;;;5074326;28;20040;-75
2022/08/17 07:27:15;;;;;;;36.25;32.33;;;19.50;99.90;;;;;;5050893;28;20114;-78
2022/08/17 07:29:49;;;;;;;46.35;35.67;;;19.50;99.90;;;;;;5051798;28;20056;-78
2022/08/17 07:32:18;;;;;;;40.97;33.70;;;19.60;99.90;;;;;;5065593;28;20059;-77
2022/08/17 07:35:01;;;;;;;43.67;33.22;;;19.70;99.90;;;;;;5050272;28;20045;-75
2022/08/17 07:37:28;;;;;;;45.97;34.85;;;19.80;99.90;;;;;;5032868;28;20178;-75
2022/08/17 07:39:54;;;;;;;43.88;34.70;;;19.80;99.90;;;;;;5050734;28;20052;-75
2022/08/17 07:42:20;;;;;;;42.33;34.22;;;20.00;99.90;;;;;;5054000;28;20057;-77
2022/08/17 07:44:51;;;;;;;45.78;36.65;;;20.10;99.90;;;;;;5052101;28;20387;-77
2022/08/17 07:50:24;;;;;;;55.22;39.35;;;20.30;99.90;;;;;;5050238;28;20545;-79
2022/08/17 07:52:50;;;;;;;60.10;41.47;;;20.40;99.90;;;;;;5065834;28;20071;-78
2022/08/17 07:55:31;;;;;;;50.95;39.00;;;20.50;99.90;;;;;;5051136;28;20060;-77
2022/08/17 07:57:58;;;;;;;51.28;39.72;;;20.60;99.90;;;;;;5049517;28;20055;-78
2022/08/17 08:00:23;;;;;;;58.42;42.53;;;20.60;99.90;;;;;;5060902;28;20127;-76
2022/08/17 08:03:17;;;;;;;57.03;41.42;;;20.70;99.90;;;;;;5067826;28;20189;-78
2022/08/17 08:05:54;;;;;;;58.80;41.22;;;20.70;99.90;;;;;;5062581;28;20063;-77
2022/08/17 08:08:31;;;;;;;51.85;40.53;;;20.70;99.90;;;;;;5070156;28;20099;-77
2022/08/17 08:11:14;;;;;;;63.35;41.85;;;20.70;99.90;;;;;;5070055;28;20037;-78
2022/08/17 08:13:43;;;;;;;52.78;39.58;;;20.70;99.90;;;;;;5070302;28;20132;-76
2022/08/17 08:16:27;;;;;;;54.80;40.00;;;20.70;99.90;;;;;;5070125;28;20087;-77
2022/08/17 08:18:59;;;;;;;50.70;39.13;;;20.80;99.90;;;;;;5044005;28;20122;-77
2022/08/17 08:21:55;;;;;;;49.63;38.78;;;20.80;99.90;;;;;;5032373;28;20101;-77
2022/08/17 08:25:01;;;;;;;49.92;36.10;;;20.90;99.90;;;;;;5049908;28;20040;-81
2022/08/17 08:28:08;;;;;;;46.72;35.80;;;20.80;99.90;;;;;;5050285;28;20113;-79
2022/08/17 08:30:43;;;;;;;52.95;39.33;;;20.90;99.90;;;;;;5066075;28;20045;-78
2022/08/17 08:33:33;;;;;;;53.55;39.67;;;20.90;99.90;;;;;;5055351;28;20052;-77
2022/08/17 08:36:06;;;;;;;48.50;37.13;;;20.90;99.90;;;;;;5083706;28;20491;-80
2022/08/17 08:39:00;;;;;;;48.17;38.25;;;20.90;99.90;;;;;;5063257;28;20049;-79
2022/08/17 08:41:46;;;;;;;52.35;39.95;;;21.00;99.90;;;;;;5067417;28;20123;-78
2022/08/17 08:44:24;;;;;;;48.70;37.75;;;20.90;99.90;;;;;;5068640;28;20036;-78
2022/08/17 08:47:13;;;;;;;52.08;38.40;;;21.00;99.90;;;;;;5059601;28;20049;-77
2022/08/17 08:50:11;;;;;;;48.08;39.08;;;21.00;99.90;;;;;;5033422;28;20568;-77
2022/08/17 08:52:52;;;;;;;51.15;39.65;;;21.00;99.90;;;;;;4979270;28;20050;-78
2022/08/17 08:55:51;;;;;;;48.50;39.83;;;21.00;99.90;;;;;;4970069;28;20093;-76
2022/08/17 08:58:19;;;;;;;53.67;41.30;;;21.00;99.90;;;;;;4984493;28;20141;-78
2022/08/17 09:00:49;;;;;;;52.47;40.92;;;21.00;99.90;;;;;;4970245;28;20046;-77
2022/08/17 09:03:35;;;;;;;54.00;41.40;;;21.00;99.90;;;;;;4985744;28;20050;-76
2022/08/17 09:06:26;;;;;;;55.03;41.38;;;21.10;99.90;;;;;;4995110;28;20042;-76
2022/08/17 09:09:19;;;;;;;52.90;41.30;;;21.10;99.90;;;;;;5006760;28;20089;-77
2022/08/17 09:11:53;;;;;;;49.33;38.90;;;21.30;99.90;;;;;;4968038;28;20074;-78
2022/08/17 09:14:32;;;;;;;54.08;40.95;;;21.40;99.90;;;;;;4978880;28;20517;-76
2022/08/17 09:17:12;;;;;;;49.70;38.80;;;21.70;99.90;;;;;;4969586;28;20058;-78
2022/08/17 09:19:45;;;;;;;46.53;37.78;;;21.80;99.90;;;;;;4972695;28;20082;-77
2022/08/17 09:22:20;;;;;;;53.70;37.35;;;22.00;99.90;;;;;;4977580;28;20173;-78
2022/08/17 09:25:01;;;;;;;47.95;37.00;;;22.20;99.90;;;;;;4989835;28;20061;-78
2022/08/17 09:27:37;;;;;;;44.85;34.63;;;22.50;99.90;;;;;;4987687;28;20399;-78
2022/08/17 09:30:09;;;;;;;43.55;33.85;;;22.80;99.90;;;;;;5071971;28;20130;-81
2022/08/17 09:32:48;;;;;;;37.83;32.20;;;23.00;99.90;;;;;;5093227;28;20044;-78
2022/08/17 09:35:19;;;;;;;39.65;32.03;;;23.00;99.90;;;;;;5093158;28;20044;-77
2022/08/17 09:38:00;;;;;;;34.45;28.98;;;23.00;99.90;;;;;;5057636;28;20056;-79
2022/08/17 09:40:38;;;;;;;36.72;31.25;;;23.00;99.90;;;;;;5081096;28;20036;-79
2022/08/17 09:43:15;;;;;;;37.75;30.20;;;22.90;99.90;;;;;;5073843;28;20054;-79
2022/08/17 09:45:41;;;;;;;34.50;30.52;;;23.00;99.90;;;;;;5054326;28;20064;-77
2022/08/17 09:48:31;;;;;;;38.70;29.77;;;23.10;99.90;;;;;;5074139;28;20072;-75
2022/08/17 09:51:12;;;;;;;33.55;29.02;;;23.10;99.90;;;;;;5052379;28;20571;-76
2022/08/17 09:53:39;;;;;;;35.50;28.45;;;23.10;99.90;;;;;;5052325;28;20510;-76
2022/08/17 09:56:15;;;;;;;33.08;26.65;;;23.00;99.90;;;;;;5052149;28;20048;-75
2022/08/17 09:59:15;;;;;;;31.52;26.52;;;23.20;99.90;;;;;;5053494;28;20037;-81
2022/08/17 10:02:13;;;;;;;30.10;26.05;;;23.20;99.90;;;;;;5068663;28;20064;-77
2022/08/17 10:04:46;;;;;;;27.42;24.50;;;23.20;99.90;;;;;;5062843;28;20186;-79
2022/08/17 10:07:39;;;;;;;30.63;24.55;;;23.20;99.90;;;;;;5075960;28;20052;-76
2022/08/17 10:10:23;;;;;;;30.70;24.80;;;23.30;99.90;;;;;;5078662;28;20052;-80
2022/08/17 10:12:56;;;;;;;26.00;23.25;;;23.30;99.90;;;;;;5078754;28;20483;-77
2022/08/17 10:15:56;;;;;;;26.70;22.45;;;23.30;99.90;;;;;;5058277;28;20119;-78
2022/08/17 10:18:57;;;;;;;25.95;21.13;;;23.30;99.90;;;;;;5075195;28;20044;-78
2022/08/17 10:26:58;;;;;;;21.75;18.02;;;23.30;99.90;;;;;;4934946;28;20483;-75
2022/08/17 10:29:38;;;;;;;22.48;19.02;;;23.30;99.90;;;;;;4951753;28;20047;-77
2022/08/17 10:32:10;;;;;;;24.90;20.80;;;23.30;99.90;;;;;;4952869;28;20059;-77
2022/08/17 10:35:09;;;;;;;24.10;20.50;;;23.20;99.90;;;;;;4970080;28;20272;-77
2022/08/17 10:37:45;;;;;;;25.95;21.00;;;23.20;99.90;;;;;;4962352;28;20054;-78
2022/08/17 10:40:23;;;;;;;26.15;22.42;;;23.10;99.90;;;;;;4968664;28;20047;-78
2022/08/17 10:42:53;;;;;;;24.65;21.70;;;23.20;99.90;;;;;;4966262;28;20130;-76
2022/08/17 10:45:34;;;;;;;26.63;20.58;;;23.20;99.90;;;;;;4962909;28;20145;-76
2022/08/17 10:48:02;;;;;;;28.10;22.23;;;23.30;99.90;;;;;;4962990;28;20415;-76
2022/08/17 10:50:59;;;;;;;27.95;24.13;;;23.40;99.90;;;;;;4951617;28;20059;-77
2022/08/17 10:53:31;;;;;;;25.92;23.05;;;23.40;99.90;;;;;;4952800;28;20190;-76
2022/08/17 10:56:12;;;;;;;28.95;22.90;;;23.50;99.90;;;;;;4936084;29;20438;-77
2022/08/17 10:58:56;;;;;;;29.65;22.35;;;23.50;99.90;;;;;;5024266;28;20088;-77
2022/08/17 11:01:37;;;;;;;30.70;22.07;;;23.60;99.90;;;;;;5068793;28;20123;-76
2022/08/17 11:04:18;;;;;;;25.77;20.70;;;23.80;99.90;;;;;;5033851;28;20044;-75
2022/08/17 11:07:07;;;;;;;26.38;20.48;;;23.80;99.90;;;;;;5059542;28;20125;-76
2022/08/17 11:09:33;;;;;;;27.20;18.52;;;23.80;99.90;;;;;;5069757;28;20040;-76
2022/08/17 11:12:10;;;;;;;19.80;17.70;;;24.00;99.90;;;;;;5067413;28;20079;-77
2022/08/17 11:15:08;;;;;;;19.52;16.90;;;24.10;99.90;;;;;;5072277;28;20058;-77
2022/08/17 11:17:51;;;;;;;25.52;17.90;;;24.10;99.90;;;;;;5073855;28;20040;-78
2022/08/17 11:20:28;;;;;;;22.48;16.35;;;24.10;99.90;;;;;;5036054;28;20064;-76
2022/08/17 11:23:32;;;;;;;27.90;16.15;;;24.00;99.90;;;;;;5041858;28;20142;-74
2022/08/17 11:26:07;;;;;;;19.77;16.48;;;24.10;99.90;;;;;;5046743;28;20048;-79
2022/08/17 11:28:44;;;;;;;22.00;16.30;;;24.20;99.90;;;;;;5060842;28;20492;-78
2022/08/17 11:31:33;;;;;;;23.90;15.88;;;24.20;99.90;;;;;;5046991;28;20043;-77
2022/08/17 11:34:06;;;;;;;17.15;15.07;;;24.20;99.90;;;;;;5091695;28;20040;-79
2022/08/17 11:37:00;;;;;;;23.03;15.83;;;24.30;99.90;;;;;;5075860;28;20505;-77
2022/08/17 11:39:44;;;;;;;20.45;14.70;;;24.40;99.90;;;;;;5058496;28;20045;-76
2022/08/17 11:42:26;;;;;;;22.95;17.92;;;24.50;99.90;;;;;;5051351;28;20090;-76
2022/08/17 11:45:02;;;;;;;21.35;15.93;;;24.50;99.90;;;;;;5057888;28;20126;-76
2022/08/17 11:53:38;;;;;;;22.73;16.75;;;24.50;99.90;;;;;;5051582;28;20491;-76
2022/08/17 11:56:08;;;;;;;21.65;16.48;;;24.40;99.90;;;;;;5069848;28;20098;-75
2022/08/17 11:58:41;;;;;;;18.00;14.05;;;24.30;99.90;;;;;;5068133;28;20044;-78
2022/08/17 12:01:21;;;;;;;17.15;14.30;;;24.30;99.90;;;;;;5051333;28;20063;-76
2022/08/17 12:03:53;;;;;;;18.58;14.65;;;24.40;99.90;;;;;;5070902;28;20036;-75
2022/08/17 12:06:40;;;;;;;19.35;15.10;;;24.30;99.90;;;;;;5040264;28;20053;-76
2022/08/17 12:09:23;;;;;;;17.85;15.68;;;24.50;99.90;;;;;;5050313;28;20060;-75
2022/08/17 12:11:55;;;;;;;17.80;14.15;;;24.50;99.90;;;;;;5051381;28;20095;-74
2022/08/17 12:14:25;;;;;;;17.08;15.27;;;24.50;99.90;;;;;;5049746;28;20133;-76
2022/08/17 12:17:13;;;;;;;17.10;14.95;;;24.60;99.90;;;;;;5050551;28;20033;-77
2022/08/17 12:19:41;;;;;;;19.20;14.38;;;24.50;99.90;;;;;;5049759;28;20087;-74
2022/08/17 12:22:39;;;;;;;14.50;11.43;;;24.50;99.90;;;;;;5054129;28;20080;-75
2022/08/17 12:25:13;;;;;;;17.15;12.88;;;24.50;99.90;;;;;;5050310;28;20092;-73
2022/08/17 12:27:46;;;;;;;17.67;11.45;;;24.60;99.90;;;;;;5070387;28;20528;-73
2022/08/17 12:30:16;;;;;;;18.73;12.60;;;24.60;99.90;;;;;;5065230;28;20090;-75
2022/08/17 12:32:46;;;;;;;14.77;11.43;;;24.60;99.90;;;;;;5050564;28;20127;-74
2022/08/17 12:35:37;;;;;;;14.90;10.00;;;24.50;99.90;;;;;;5055831;28;20122;-76
2022/08/17 12:38:07;;;;;;;15.57;10.30;;;24.60;99.90;;;;;;5004106;28;20560;-75
2022/08/17 12:40:33;;;;;;;12.07;9.77;;;24.60;99.90;;;;;;5018500;28;20528;-76
2022/08/17 12:43:06;;;;;;;14.02;9.80;;;24.50;99.90;;;;;;5010394;28;20103;-75
2022/08/17 12:45:38;;;;;;;17.90;9.25;;;24.50;99.90;;;;;;5027259;28;20056;-75
2022/08/17 12:48:12;;;;;;;17.75;10.93;;;24.50;99.90;;;;;;5007138;28;20213;-73
2022/08/17 12:50:41;;;;;;;14.60;11.25;;;24.40;99.90;;;;;;4999853;28;20085;-73
2022/08/17 12:53:15;;;;;;;15.30;10.30;;;24.30;99.90;;;;;;4998307;28;20046;-73
2022/08/17 12:55:43;;;;;;;17.27;10.68;;;24.20;99.90;;;;;;4987800;28;20050;-74
2022/08/17 12:58:24;;;;;;;16.67;9.63;;;24.20;99.90;;;;;;4988933;28;20108;-75
2022/08/17 13:01:04;;;;;;;13.43;8.77;;;24.20;99.90;;;;;;5002338;28;20096;-73
2022/08/17 13:03:40;;;;;;;11.18;7.57;;;24.10;99.90;;;;;;4978914;28;20053;-73
2022/08/17 13:06:11;;;;;;;14.43;8.48;;;24.20;99.90;;;;;;4996090;28;20053;-75
2022/08/17 13:08:41;;;;;;;10.43;8.40;;;24.10;99.90;;;;;;5007749;28;20132;-73
2022/08/17 13:11:18;;;;;;;12.75;8.70;;;24.20;99.90;;;;;;5007329;28;20104;-74
2022/08/17 13:13:46;;;;;;;11.70;8.82;;;24.20;99.90;;;;;;5004855;28;20423;-74
2022/08/17 13:16:11;;;;;;;13.10;8.95;;;24.10;99.90;;;;;;5043467;28;20385;-74
2022/08/17 13:18:49;;;;;;;18.08;9.30;;;24.10;99.90;;;;;;5038041;28;20052;-74
2022/08/17 13:21:25;;;;;;;14.50;8.98;;;24.00;99.90;;;;;;5060162;28;20044;-73
2022/08/17 13:24:08;;;;;;;13.25;8.77;;;23.90;99.90;;;;;;5060496;28;20060;-74
2022/08/17 13:26:38;;;;;;;12.18;8.38;;;23.80;99.90;;;;;;5063029;28;20041;-73
2022/08/17 13:29:06;;;;;;;15.60;9.68;;;23.80;99.90;;;;;;5039595;28;20051;-73